Time;durP1;ratioP1;P1;durP2;ratioP2;P2;SDS_P1;SDS_P2;PMS_P1;PMS_P2;Temp;Humidity;BMP_temperature;BMP_pressure;BME280_temperature;BME280_humidity;BME280_pressure;Samples;Min_cycle;Max_cycle;Signal;HPM_P1;HPM_P2
2023/01/26 00:00:03;;;;;;;72.10;38.13;;;3.80;99.90;;;3.95;95.03;102344.09;5072230;28;20501;-59
2023/01/26 00:02:32;;;;;;;75.57;38.47;;;3.90;99.90;;;4.02;95.27;102350.50;5072007;28;20482;-59
2023/01/26 00:05:00;;;;;;;73.10;38.57;;;3.90;99.90;;;4.10;95.18;102354.38;5070725;28;20110;-60
2023/01/26 00:07:29;;;;;;;72.20;37.50;;;4.00;99.90;;;4.19;94.51;102355.69;5072185;28;20048;-59
2023/01/26 00:09:57;;;;;;;72.67;39.37;;;4.10;99.90;;;4.21;94.37;102353.13;5070562;28;20040;-59
2023/01/26 00:12:27;;;;;;;72.23;37.77;;;4.10;99.90;;;4.29;94.31;102350.03;5074517;28;20036;-59
2023/01/26 00:14:55;;;;;;;80.72;37.50;;;4.20;99.90;;;4.34;93.73;102352.84;5076057;28;20052;-60
2023/01/26 00:17:26;;;;;;;76.13;38.10;;;4.20;99.90;;;4.33;93.47;102351.97;5075423;28;20482;-59
2023/01/26 00:19:56;;;;;;;72.40;37.73;;;4.30;99.90;;;4.34;93.66;102348.50;5075393;28;20525;-59
2023/01/26 00:22:27;;;;;;;76.45;37.72;;;4.20;99.90;;;4.39;93.68;102343.47;5075996;28;20059;-59
2023/01/26 00:24:55;;;;;;;78.20;39.88;;;4.20;99.90;;;4.46;93.44;102351.66;5075631;28;20095;-60
2023/01/26 00:27:23;;;;;;;74.87;40.00;;;4.30;99.90;;;4.38;92.95;102345.19;5075762;28;20049;-59
2023/01/26 00:29:53;;;;;;;71.60;38.37;;;4.40;99.90;;;4.46;92.92;102346.44;5091028;28;20526;-59
2023/01/26 00:32:22;;;;;;;73.32;39.60;;;4.40;99.90;;;4.46;92.72;102343.81;5075436;28;20557;-59
2023/01/26 00:34:50;;;;;;;74.90;38.53;;;4.40;99.90;;;4.47;92.83;102342.97;5075403;28;20042;-59
2023/01/26 00:37:19;;;;;;;69.47;37.43;;;4.40;99.90;;;4.51;92.73;102333.50;5075306;28;20047;-59
2023/01/26 00:39:47;;;;;;;77.60;38.27;;;4.40;99.90;;;4.46;92.82;102333.34;5075281;28;20044;-60
2023/01/26 00:42:15;;;;;;;76.03;40.67;;;4.40;99.90;;;4.37;92.43;102340.81;5090804;28;20055;-60
2023/01/26 00:44:44;;;;;;;79.60;39.77;;;4.40;99.90;;;4.35;92.45;102337.22;5074906;28;20044;-59
2023/01/26 00:47:15;;;;;;;79.03;39.03;;;4.30;99.90;;;4.32;93.12;102309.97;5075170;28;20139;-60
2023/01/26 00:49:43;;;;;;;78.70;39.20;;;4.30;99.90;;;4.40;92.52;102330.44;5075134;28;20044;-60
2023/01/26 00:52:13;;;;;;;78.63;40.63;;;4.40;99.90;;;4.30;93.10;102327.34;5074957;28;20040;-59
2023/01/26 00:54:41;;;;;;;80.30;40.33;;;4.30;99.90;;;4.28;93.57;102332.50;5074990;28;20080;-59
2023/01/26 00:57:10;;;;;;;79.00;40.47;;;4.20;99.90;;;4.07;93.42;102313.25;5074944;28;20044;-59
2023/01/26 00:59:38;;;;;;;81.77;39.77;;;4.20;99.90;;;4.27;93.35;102321.97;5073596;28;20079;-60
2023/01/26 01:02:06;;;;;;;83.00;41.33;;;4.20;99.90;;;4.27;93.94;102312.41;5074879;28;20040;-60
2023/01/26 01:04:36;;;;;;;89.93;43.27;;;4.20;99.90;;;4.23;94.08;102318.34;5074701;28;20056;-60
2023/01/26 01:07:05;;;;;;;87.80;43.45;;;4.20;99.90;;;4.20;94.03;102307.72;5074545;28;20553;-60
2023/01/26 01:09:33;;;;;;;94.37;45.17;;;4.20;99.90;;;4.11;94.34;102309.94;5090314;28;20048;-60
2023/01/26 01:12:02;;;;;;;90.93;44.63;;;4.10;99.90;;;4.09;94.36;102306.34;5073314;28;20036;-60
2023/01/26 01:14:30;;;;;;;94.20;45.77;;;4.10;99.90;;;4.20;94.85;102314.69;5074450;28;20458;-60
2023/01/26 01:16:58;;;;;;;95.70;45.67;;;4.10;99.90;;;4.18;94.60;102301.50;5073263;28;20094;-60
2023/01/26 01:19:27;;;;;;;93.33;45.27;;;4.10;99.90;;;4.24;94.79;102306.16;5074465;28;20116;-60
2023/01/26 01:21:57;;;;;;;92.63;44.03;;;4.20;99.90;;;4.30;95.07;102311.63;5074442;28;20040;-60
2023/01/26 01:24:25;;;;;;;91.05;44.65;;;4.20;99.90;;;4.35;94.43;102316.25;5073193;28;20098;-60
2023/01/26 01:26:54;;;;;;;97.27;47.10;;;4.30;99.90;;;4.18;94.74;102308.50;5074413;28;20051;-60
2023/01/26 01:29:22;;;;;;;87.33;43.53;;;4.20;99.90;;;4.24;95.27;102306.16;5074305;28;20090;-60
2023/01/26 01:31:50;;;;;;;98.90;46.47;;;4.20;99.90;;;4.32;94.97;102307.34;5074007;28;20534;-60
2023/01/26 01:34:19;;;;;;;94.03;43.27;;;4.20;99.90;;;4.29;95.20;102309.84;5074223;28;20077;-60
2023/01/26 01:36:47;;;;;;;90.17;43.37;;;4.30;99.90;;;4.38;95.10;102315.47;5074075;28;20052;-59
2023/01/26 01:39:17;;;;;;;101.57;47.17;;;4.30;99.90;;;4.43;94.95;102309.59;5074162;28;20033;-60
2023/01/26 01:41:45;;;;;;;95.05;45.53;;;4.30;99.90;;;4.47;94.77;102311.53;5074360;28;20052;-60
2023/01/26 01:44:18;;;;;;;99.00;46.13;;;4.40;99.90;;;4.47;94.57;102314.16;5072811;28;20067;-60
2023/01/26 01:46:51;;;;;;;100.40;47.57;;;4.40;99.90;;;4.50;94.53;102310.78;5073468;28;20044;-60
2023/01/26 01:49:25;;;;;;;95.80;45.33;;;4.40;99.90;;;4.54;94.63;102317.94;5072590;28;20516;-60
2023/01/26 01:51:58;;;;;;;96.10;47.77;;;4.50;99.90;;;4.55;94.34;102310.13;5073886;28;20397;-60
2023/01/26 01:54:35;;;;;;;96.77;44.63;;;4.50;99.90;;;4.55;94.03;102310.13;5073913;28;20041;-60
2023/01/26 01:57:14;;;;;;;94.40;45.60;;;4.50;99.90;;;4.52;94.14;102304.78;5073809;28;20479;-60
2023/01/26 01:59:45;;;;;;;96.50;46.50;;;4.50;99.90;;;4.54;94.21;102313.59;5073545;28;20479;-60
2023/01/26 02:02:14;;;;;;;95.77;46.63;;;4.50;99.90;;;4.62;94.16;102305.16;5073702;28;20459;-60
2023/01/26 02:04:43;;;;;;;99.80;46.10;;;4.50;99.90;;;4.65;94.37;102306.19;5073562;28;20063;-60
2023/01/26 02:07:12;;;;;;;94.13;44.27;;;4.50;99.90;;;4.68;94.20;102308.03;5073530;28;20048;-60
2023/01/26 02:12:32;;;;;;;89.20;44.50;;;4.60;99.90;;;4.70;93.85;102309.91;5072178;28;20052;-60
2023/01/26 02:15:02;;;;;;;90.43;45.37;;;4.70;99.90;;;4.73;93.79;102296.94;5073504;28;20052;-60
2023/01/26 02:17:31;;;;;;;92.55;44.05;;;4.60;99.90;;;4.84;94.00;102306.13;5073454;28;20051;-60
2023/01/26 02:20:08;;;;;;;85.93;42.07;;;4.70;99.90;;;4.86;93.40;102296.59;5072086;28;20044;-60
2023/01/26 02:22:46;;;;;;;85.82;42.60;;;4.70;99.90;;;4.87;93.53;102307.97;5088951;28;20468;-60
2023/01/26 02:25:32;;;;;;;88.65;43.88;;;4.70;99.90;;;4.92;93.18;102303.81;5088979;28;20117;-60
2023/01/26 02:28:02;;;;;;;87.00;43.80;;;4.80;99.90;;;4.94;93.35;102304.78;5071994;28;20041;-60
2023/01/26 02:30:30;;;;;;;89.25;42.88;;;4.80;99.90;;;4.99;93.12;102300.63;5071869;28;20056;-60
2023/01/26 02:32:59;;;;;;;86.53;40.83;;;4.90;99.90;;;4.97;93.05;102294.44;5071730;28;20052;-60
2023/01/26 02:35:28;;;;;;;85.23;42.27;;;4.90;99.90;;;5.05;92.86;102295.66;5088296;28;20454;-60
2023/01/26 02:37:56;;;;;;;88.00;42.87;;;4.90;99.90;;;5.08;92.65;102293.13;5088642;28;20032;-60
2023/01/26 02:40:33;;;;;;;87.53;43.83;;;5.00;99.90;;;5.09;92.65;102294.94;5071698;28;20091;-60
2023/01/26 02:43:02;;;;;;;79.83;41.20;;;5.00;99.90;;;5.12;92.45;102301.19;5071716;28;20044;-60
2023/01/26 02:45:31;;;;;;;87.27;42.77;;;5.00;99.90;;;5.16;92.49;102307.44;5088548;28;20099;-60
2023/01/26 02:48:03;;;;;;;79.47;40.50;;;5.00;99.90;;;5.18;92.40;102311.03;5071668;28;20037;-60
2023/01/26 02:50:31;;;;;;;82.00;42.00;;;5.10;99.90;;;5.20;92.31;102314.59;5071737;28;20082;-60
2023/01/26 02:52:59;;;;;;;80.50;39.97;;;5.10;99.90;;;5.21;92.06;102311.13;5071494;28;20044;-60
2023/01/26 02:55:29;;;;;;;81.53;40.72;;;5.10;99.90;;;5.17;92.18;102312.75;5071698;28;20068;-60
2023/01/26 02:58:00;;;;;;;78.83;40.47;;;5.10;99.90;;;5.20;92.76;102314.59;5071532;28;20036;-60
2023/01/26 03:00:35;;;;;;;81.07;40.70;;;5.00;99.90;;;5.23;92.68;102299.88;5088118;28;20131;-60
2023/01/26 03:03:13;;;;;;;80.47;39.17;;;5.10;99.90;;;5.19;92.67;102304.94;5088378;28;20041;-61
2023/01/26 03:05:42;;;;;;;79.83;39.80;;;5.10;99.90;;;5.28;92.32;102305.31;5071353;28;20174;-60
2023/01/26 03:08:10;;;;;;;81.00;39.17;;;5.10;99.90;;;5.29;92.23;102299.22;5071473;28;20052;-60
2023/01/26 03:10:39;;;;;;;77.23;39.93;;;5.10;99.90;;;5.23;92.37;102298.97;5088181;28;20050;-60
2023/01/26 03:13:08;;;;;;;82.07;40.33;;;5.20;99.90;;;5.30;92.28;102299.28;5072678;28;20036;-64
2023/01/26 03:15:51;;;;;;;80.13;40.43;;;5.20;99.90;;;5.35;92.01;102307.34;5071368;28;20470;-60
2023/01/26 03:29:33;;;;;;;78.03;39.03;;;5.30;99.90;;;5.39;91.75;102304.00;5071286;28;20059;-60
2023/01/26 03:32:04;;;;;;;80.53;40.83;;;5.30;99.90;;;5.44;91.90;102308.59;5071196;28;20056;-60
2023/01/26 03:34:32;;;;;;;;;;;5.30;99.90;;;5.29;91.80;102280.88;5071688;28;20098;-60
2023/01/26 03:37:01;;;;;;;77.70;38.57;;;5.40;99.90;;;5.36;91.98;102288.16;5071173;28;19926;-60
2023/01/26 03:56:26;;;;;;;71.93;36.88;;;5.10;99.90;;;5.25;93.08;102306.09;5074825;28;20083;-60
2023/01/26 03:59:06;;;;;;;78.40;38.93;;;5.10;99.90;;;5.09;93.22;102308.03;5074799;28;20405;-60
2023/01/26 04:01:37;;;;;;;72.83;38.50;;;4.90;99.90;;;5.16;93.75;102312.69;5091321;28;20102;-60
2023/01/26 04:09:45;;;;;;;76.83;38.83;;;4.90;99.90;;;5.16;93.96;102310.06;5074476;28;20083;-59
2023/01/26 04:12:13;;;;;;;81.20;39.60;;;5.00;99.90;;;5.21;93.66;102313.75;5074420;28;20071;-59
2023/01/26 04:23:18;;;;;;;75.90;38.10;;;5.20;99.90;;;5.35;93.54;102316.13;5074337;28;20048;-60
2023/01/26 04:25:48;;;;;;;77.07;39.33;;;5.20;99.90;;;5.45;93.51;102320.91;5073954;28;20048;-60
2023/01/26 04:28:17;;;;;;;75.03;38.53;;;5.30;99.90;;;5.45;93.34;102312.13;5075509;28;20048;-60
2023/01/26 04:30:47;;;;;;;78.80;39.35;;;5.30;99.90;;;5.50;93.46;102311.47;5074160;28;20044;-60
2023/01/26 04:33:15;;;;;;;77.03;37.87;;;5.30;99.90;;;5.53;93.02;102313.31;5075308;28;20048;-60
2023/01/26 04:35:45;;;;;;;71.53;37.57;;;5.40;99.90;;;5.62;93.14;102323.28;5074056;28;20563;-60
2023/01/26 04:38:13;;;;;;;75.13;38.22;;;5.40;99.90;;;5.66;92.85;102320.84;5073997;28;20106;-60
2023/01/26 04:40:43;;;;;;;74.70;37.63;;;5.50;99.90;;;5.65;92.79;102313.81;5074038;28;20036;-60
2023/01/26 04:43:11;;;;;;;80.53;40.40;;;5.50;99.90;;;5.61;92.52;102319.78;5073909;28;20079;-60
2023/01/26 04:45:39;;;;;;;76.70;39.20;;;5.50;99.90;;;5.70;92.84;102316.59;5073871;28;20051;-60
2023/01/26 04:48:08;;;;;;;78.07;40.05;;;5.60;99.90;;;5.71;92.62;102316.66;5073886;28;20598;-60
2023/01/26 04:50:36;;;;;;;73.97;38.43;;;5.60;99.90;;;5.72;92.54;102318.44;5073781;28;20436;-60
2023/01/26 04:53:06;;;;;;;71.97;37.57;;;5.60;99.90;;;5.64;92.48;102324.22;5090570;28;20060;-60
2023/01/26 04:55:34;;;;;;;76.57;39.15;;;5.50;99.90;;;5.28;93.20;102247.63;5090666;28;20048;-60
2023/01/26 04:58:02;;;;;;;69.17;37.17;;;5.60;99.90;;;5.77;92.61;102316.88;5074688;28;20047;-60
2023/01/26 05:00:31;;;;;;;72.28;37.38;;;5.60;99.90;;;5.74;92.93;102313.25;5073613;28;20152;-60
2023/01/26 05:03:01;;;;;;;70.53;36.90;;;5.50;99.90;;;5.70;92.98;102321.84;5090507;28;20072;-60
2023/01/26 05:05:30;;;;;;;74.80;37.87;;;5.50;99.90;;;5.71;93.27;102311.38;5073496;28;20056;-60
2023/01/26 05:07:58;;;;;;;71.80;36.57;;;5.50;99.90;;;5.78;93.36;102315.16;5073506;28;20135;-60
2023/01/26 05:10:30;;;;;;;68.93;36.90;;;5.60;99.90;;;5.86;93.23;102319.00;5073436;28;20076;-60
2023/01/26 05:13:23;;;;;;;66.07;36.10;;;5.60;99.90;;;5.82;93.45;102315.34;5074605;28;20136;-60
2023/01/26 05:16:04;;;;;;;76.40;36.92;;;5.60;99.90;;;5.90;93.43;102320.91;5073406;28;20044;-60
2023/01/26 05:18:42;;;;;;;71.35;36.75;;;5.70;99.90;;;5.93;93.56;102323.63;5073385;28;20402;-60
2023/01/26 05:21:26;;;;;;;69.93;36.33;;;5.70;99.90;;;5.91;93.54;102320.06;5073211;28;20044;-60
2023/01/26 05:23:55;;;;;;;76.70;37.78;;;5.70;99.90;;;5.84;93.80;102297.94;5073270;28;20047;-60
2023/01/26 05:27:21;;;;;;;74.87;37.97;;;5.80;99.90;;;5.94;94.28;102310.56;4992698;28;20549;-60
2023/01/26 05:29:54;;;;;;;74.57;36.47;;;5.70;99.90;;;5.89;95.08;102317.38;4992476;28;20056;-60
2023/01/26 05:32:22;;;;;;;67.33;34.40;;;5.70;99.90;;;6.01;95.27;102315.22;5037168;28;20067;-60
2023/01/26 05:34:51;;;;;;;66.85;34.30;;;5.80;99.90;;;6.15;95.22;102324.50;5072859;28;20294;-60
2023/01/26 05:37:19;;;;;;;66.27;33.57;;;5.90;99.90;;;6.23;95.18;102323.03;5072902;28;20437;-60
2023/01/26 05:39:48;;;;;;;62.90;32.20;;;6.00;99.90;;;6.25;95.16;102323.13;5072855;28;20101;-60
2023/01/26 05:42:18;;;;;;;59.78;29.95;;;6.00;99.90;;;6.33;95.65;102319.91;5072745;28;20139;-60
2023/01/26 05:45:07;;;;;;;64.43;29.88;;;6.20;99.90;;;6.45;95.94;102329.97;5073999;28;20406;-60
2023/01/26 05:47:36;;;;;;;57.13;27.50;;;6.30;99.90;;;6.62;96.49;102326.19;5072697;28;20458;-60
2023/01/26 05:50:06;;;;;;;57.22;26.92;;;6.50;99.90;;;6.66;96.56;102332.47;5089476;28;20406;-60
2023/01/26 05:52:35;;;;;;;61.58;26.95;;;6.50;99.90;;;6.70;96.91;102336.97;5072540;28;20486;-60
2023/01/26 05:55:05;;;;;;;51.50;25.20;;;6.60;99.90;;;6.80;97.12;102328.56;5073537;28;20505;-61
2023/01/26 05:57:35;;;;;;;58.70;25.23;;;6.70;99.90;;;6.85;97.60;102332.25;5089351;28;20072;-60
2023/01/26 06:00:08;;;;;;;54.30;24.23;;;6.80;99.90;;;6.99;97.53;102334.50;5089299;28;20143;-60
2023/01/26 06:02:52;;;;;;;59.25;24.45;;;6.90;99.90;;;7.08;97.55;102337.41;5072396;28;20063;-60
2023/01/26 06:05:21;;;;;;;56.20;24.17;;;7.00;99.90;;;7.10;97.81;102338.38;5088755;28;20060;-60
2023/01/26 06:07:50;;;;;;;50.70;24.52;;;7.00;99.90;;;7.07;97.82;102338.28;5072297;28;20477;-60
2023/01/26 06:10:25;;;;;;;55.40;23.02;;;7.00;99.90;;;7.19;97.93;102337.78;5088457;28;20098;-60
2023/01/26 06:13:24;;;;;;;55.67;22.52;;;7.10;99.90;;;7.20;97.75;102334.34;5068778;28;20044;-60
2023/01/26 06:16:01;;;;;;;53.35;21.08;;;7.20;99.90;;;7.31;97.87;102338.19;5089079;28;20513;-60
2023/01/26 06:18:30;;;;;;;;;;;7.30;99.90;;;7.43;97.79;102343.84;5089503;28;20263;-60
2023/01/26 06:21:01;;;;;;;55.08;18.13;;;7.40;99.90;;;7.49;98.33;102344.03;5089002;28;20417;-60
2023/01/26 06:23:30;;;;;;;52.92;18.45;;;7.50;99.90;;;7.40;98.25;102342.84;5071981;28;20040;-60
2023/01/26 06:26:02;;;;;;;46.85;17.13;;;7.40;99.90;;;7.52;98.71;102349.41;5073198;28;20060;-60
2023/01/26 06:28:32;;;;;;;49.13;16.33;;;7.40;99.90;;;7.57;98.66;102350.44;5071919;28;20048;-60
2023/01/26 06:31:01;;;;;;;48.73;17.10;;;7.50;99.90;;;7.38;98.66;102326.09;5088921;28;20437;-61
2023/01/26 06:33:30;;;;;;;55.17;17.20;;;7.60;99.90;;;7.74;98.95;102356.25;5071796;28;20040;-61
2023/01/26 06:36:02;;;;;;;55.80;16.73;;;7.70;99.90;;;7.64;98.74;102362.97;5071536;28;20076;-60
2023/01/26 06:38:31;;;;;;;56.88;15.80;;;7.60;99.90;;;7.73;98.98;102355.34;5073223;28;20078;-60
2023/01/26 06:41:01;;;;;;;44.60;13.68;;;7.70;99.90;;;7.77;98.85;102357.22;5071740;28;20071;-61
2023/01/26 06:43:33;;;;;;;47.78;13.43;;;7.70;99.90;;;7.68;99.31;102362.22;5088688;28;20083;-61
2023/01/26 06:46:03;;;;;;;54.80;13.98;;;7.60;99.90;;;7.50;99.64;102331.75;5073044;28;20730;-61
2023/01/26 06:48:34;;;;;;;58.35;14.38;;;7.60;99.90;;;7.70;100.00;102368.44;5071802;28;20053;-61
2023/01/26 06:51:22;;;;;;;44.25;11.93;;;7.70;99.90;;;7.82;99.71;102370.53;5071739;28;20047;-61
2023/01/26 06:53:53;;;;;;;42.95;10.80;;;7.80;99.90;;;7.75;99.76;102377.34;5071604;28;20051;-61
2023/01/26 06:56:33;;;;;;;48.75;10.80;;;7.80;99.90;;;7.80;100.00;102383.63;5071610;28;20044;-61
2023/01/26 06:59:25;;;;;;;52.40;10.63;;;7.80;99.90;;;7.79;100.00;102380.97;5052642;28;20060;-61
2023/01/26 07:02:23;;;;;;;52.83;10.80;;;7.80;99.90;;;7.83;100.00;102390.75;5071432;28;20053;-61
2023/01/26 07:04:51;;;;;;;46.88;9.35;;;7.80;99.90;;;7.68;100.00;102367.47;5072512;28;20060;-61
2023/01/26 07:07:20;;;;;;;58.17;10.45;;;7.80;99.90;;;7.87;100.00;102400.53;5072525;28;20044;-60
2023/01/26 07:09:48;;;;;;;56.72;9.32;;;7.90;99.90;;;7.88;100.00;102397.94;5072406;28;20090;-61
2023/01/26 07:12:16;;;;;;;57.30;10.45;;;7.90;99.90;;;7.93;100.00;102392.84;5072981;28;20040;-60
2023/01/26 07:14:46;;;;;;;44.53;9.35;;;7.90;99.90;;;7.93;99.90;102391.09;5072265;28;20456;-60
2023/01/26 07:17:14;;;;;;;51.70;10.83;;;7.90;99.90;;;7.94;99.35;102397.25;5072493;28;20417;-60
2023/01/26 07:19:44;;;;;;;45.15;9.20;;;7.90;99.90;;;7.99;99.38;102404.44;5072490;28;20698;-60
2023/01/26 07:22:14;;;;;;;45.05;9.73;;;8.00;99.90;;;7.99;99.43;102395.66;5075493;28;20094;-61
2023/01/26 07:24:42;;;;;;;52.30;9.75;;;8.00;99.90;;;7.95;99.05;102405.22;5076884;28;20123;-61
2023/01/26 07:27:11;;;;;;;45.20;8.98;;;7.90;99.90;;;8.05;99.41;102414.28;5076358;28;20490;-61
2023/01/26 07:29:39;;;;;;;52.95;9.43;;;8.00;99.90;;;8.03;99.05;102408.94;5076619;28;20029;-61
2023/01/26 07:32:08;;;;;;;55.97;10.88;;;8.00;99.90;;;8.07;98.83;102405.56;5076610;28;20051;-61
2023/01/26 07:34:37;;;;;;;53.87;9.73;;;8.10;99.90;;;7.97;98.36;102407.88;5076201;28;20132;-61
2023/01/26 07:37:05;;;;;;;44.85;9.55;;;8.00;99.90;;;7.86;98.31;102410.19;5076468;28;20032;-61
2023/01/26 07:39:33;;;;;;;43.97;9.57;;;7.90;99.90;;;7.88;97.91;102416.38;5076132;28;20585;-61
2023/01/26 07:42:02;;;;;;;44.53;8.23;;;7.80;99.90;;;7.82;97.19;102429.34;5076039;28;20131;-61
2023/01/26 07:44:45;;;;;;;41.08;8.70;;;7.80;99.90;;;7.81;97.15;102429.31;5074952;28;20051;-61
2023/01/26 07:47:15;;;;;;;47.75;9.35;;;7.80;99.90;;;7.82;97.09;102426.72;5075995;28;20044;-62
2023/01/26 07:49:43;;;;;;;38.60;7.55;;;7.80;99.90;;;7.84;96.60;102422.41;5076266;28;20052;-61
2023/01/26 07:52:11;;;;;;;38.05;9.35;;;7.80;99.90;;;7.81;96.06;102431.97;5075903;28;20040;-61
2023/01/26 07:54:39;;;;;;;45.20;9.13;;;7.80;99.90;;;7.84;96.00;102435.56;5075717;28;20055;-61
2023/01/26 07:57:08;;;;;;;51.40;9.77;;;7.80;99.90;;;7.76;95.70;102442.34;5075849;28;20052;-61
2023/01/26 07:59:36;;;;;;;39.28;8.43;;;7.80;99.90;;;7.85;95.46;102449.66;5075981;28;20044;-61
2023/01/26 08:02:05;;;;;;;38.72;8.82;;;7.80;99.90;;;7.89;95.23;102451.53;5074656;28;20074;-61
2023/01/26 08:04:34;;;;;;;38.03;8.95;;;7.90;99.90;;;7.90;94.79;102454.22;5075753;28;20103;-64
2023/01/26 08:07:03;;;;;;;48.97;9.37;;;7.90;99.90;;;7.93;94.43;102456.97;5075974;28;20076;-60
2023/01/26 08:09:32;;;;;;;39.47;8.38;;;7.90;99.90;;;7.97;94.01;102450.03;5075553;28;20036;-60
2023/01/26 08:12:00;;;;;;;35.15;8.18;;;7.90;99.90;;;7.86;94.23;102432.97;5075474;28;20044;-61
2023/01/26 08:14:28;;;;;;;41.33;8.57;;;8.00;99.90;;;8.05;93.63;102459.97;5075451;28;20044;-60
2023/01/26 08:17:16;;;;;;;36.10;8.52;;;8.00;99.90;;;8.01;93.63;102467.75;5075513;28;20044;-60
2023/01/26 08:19:46;;;;;;;44.33;8.93;;;8.00;99.90;;;7.88;93.64;102434.81;5075417;28;20090;-60
2023/01/26 08:22:15;;;;;;;38.78;8.68;;;8.00;99.90;;;8.06;93.56;102461.75;5075586;28;20113;-60
2023/01/26 08:24:43;;;;;;;43.83;8.90;;;8.00;99.90;;;7.69;93.34;102384.16;5075530;28;20044;-61
2023/01/26 08:27:11;;;;;;;44.65;10.38;;;8.00;99.90;;;8.19;94.01;102461.28;5075577;28;20079;-61
2023/01/26 08:29:40;;;;;;;47.58;8.98;;;8.20;99.90;;;8.27;94.40;102458.00;5075261;28;20040;-61
2023/01/26 08:32:08;;;;;;;36.67;9.80;;;8.30;99.90;;;8.41;94.58;102470.78;5074514;28;20041;-61
2023/01/26 08:34:37;;;;;;;48.70;10.35;;;8.30;99.90;;;8.67;95.18;102468.91;5075344;28;20132;-61
2023/01/26 08:37:06;;;;;;;47.17;8.75;;;8.60;99.90;;;8.81;94.05;102473.72;5075286;28;20076;-61
2023/01/26 08:39:35;;;;;;;42.90;10.07;;;8.70;99.90;;;8.96;93.61;102474.16;5091053;28;20102;-61
2023/01/26 08:42:03;;;;;;;44.90;9.02;;;8.90;99.90;;;9.15;92.87;102485.22;5075299;28;20429;-62
2023/01/26 08:44:32;;;;;;;43.60;9.88;;;9.10;99.90;;;9.36;92.61;102485.78;5075024;28;20106;-61
2023/01/26 08:47:00;;;;;;;40.60;8.55;;;9.30;99.90;;;9.74;92.69;102482.38;5075097;28;20064;-61
2023/01/26 08:49:28;;;;;;;39.13;8.30;;;9.60;99.90;;;9.95;91.63;102488.19;5075516;28;20052;-61
2023/01/26 08:51:56;;;;;;;43.95;8.93;;;9.90;99.90;;;10.26;90.70;102484.56;5074933;28;20067;-61
2023/01/26 08:54:27;;;;;;;39.40;9.05;;;10.20;99.90;;;10.41;88.24;102479.59;5075015;28;20119;-61
2023/01/26 08:56:55;;;;;;;;;;;10.40;99.90;;;10.63;86.17;102489.78;5075192;28;20095;-61
2023/01/26 08:59:23;;;;;;;34.85;8.88;;;10.60;99.90;;;10.87;85.27;102492.94;5075220;28;19920;-61
2023/01/26 09:01:52;;;;;;;40.70;8.52;;;10.80;99.90;;;11.03;84.09;102494.16;5074787;28;20047;-61
2023/01/26 09:04:20;;;;;;;37.90;9.50;;;11.00;99.90;;;11.31;82.88;102496.44;5074717;28;20036;-61
2023/01/26 09:06:49;;;;;;;37.75;8.85;;;11.30;99.90;;;11.49;81.75;102499.44;5075032;28;20048;-60
2023/01/26 09:09:17;;;;;;;38.50;9.07;;;11.50;99.90;;;11.61;80.53;102497.88;5074480;28;20513;-62
2023/01/26 09:11:47;;;;;;;35.97;8.88;;;11.60;99.90;;;11.63;79.99;102508.53;5073384;28;20490;-62
2023/01/26 09:14:15;;;;;;;32.47;8.10;;;11.60;99.90;;;11.57;78.94;102514.63;5074404;28;20131;-61
2023/01/26 09:16:43;;;;;;;35.13;8.27;;;11.60;99.90;;;11.53;79.31;102510.16;5074610;28;20045;-61
2023/01/26 09:19:12;;;;;;;40.08;8.95;;;11.60;99.90;;;11.61;79.84;102521.75;5074329;28;20117;-61
2023/01/26 09:21:40;;;;;;;35.20;8.43;;;11.50;99.90;;;11.68;79.58;102517.50;5074222;28;20045;-62
2023/01/26 09:24:09;;;;;;;42.20;8.52;;;11.60;99.90;;;11.84;79.26;102519.56;5074209;28;20047;-61
2023/01/26 09:26:37;;;;;;;31.10;8.38;;;11.80;99.90;;;11.98;79.02;102528.59;5074138;28;20045;-62
2023/01/26 09:29:07;;;;;;;33.17;7.53;;;11.90;99.90;;;11.86;77.84;102528.44;5074112;28;20048;-62
2023/01/26 09:31:35;;;;;;;44.97;9.55;;;11.80;99.90;;;11.75;77.93;102527.31;5074005;28;20045;-62
2023/01/26 09:34:04;;;;;;;40.75;8.32;;;11.70;99.90;;;11.60;78.06;102533.22;5073927;28;20045;-62
2023/01/26 09:36:32;;;;;;;40.35;9.18;;;11.60;99.90;;;11.71;79.25;102528.16;5074260;28;20055;-62
2023/01/26 09:39:01;;;;;;;32.35;7.93;;;11.60;99.90;;;12.00;79.26;102526.00;5073930;28;20051;-62
2023/01/26 09:41:51;;;;;;;41.70;10.23;;;11.90;99.90;;;12.18;78.33;102531.56;5074139;28;20063;-62
2023/01/26 09:44:24;;;;;;;;;;;12.10;99.90;;;11.75;77.63;102454.00;5073186;28;20044;-62
2023/01/26 09:47:05;;;;;;;44.15;9.30;;;12.10;99.90;;;12.25;77.51;102515.78;5073833;28;19924;-62
2023/01/26 09:49:47;;;;;;;36.35;9.48;;;12.20;99.90;;;12.53;76.55;102531.25;5073726;28;20560;-62
2023/01/26 09:52:24;;;;;;;39.65;8.45;;;12.40;99.90;;;12.73;76.44;102518.25;5073679;28;20487;-62
2023/01/26 09:54:55;;;;;;;37.30;8.77;;;12.60;99.90;;;12.91;75.34;102531.75;5073559;28;20040;-62
2023/01/26 09:57:30;;;;;;;30.98;8.25;;;12.80;99.90;;;13.11;75.05;102530.28;5073505;28;20072;-62
2023/01/26 10:00:08;;;;;;;37.13;9.45;;;13.00;99.90;;;13.34;74.10;102542.06;5073495;28;20458;-62
2023/01/26 10:02:51;;;;;;;34.40;8.18;;;13.20;99.90;;;13.40;73.01;102539.47;5073385;28;20040;-62
2023/01/26 10:05:30;;;;;;;38.67;8.60;;;13.40;99.90;;;13.50;72.91;102537.78;5073371;28;20087;-62
2023/01/26 10:08:12;;;;;;;36.00;8.38;;;13.40;99.90;;;13.73;71.24;102530.03;5089149;28;20052;-62
2023/01/26 10:10:46;;;;;;;26.63;7.57;;;13.70;99.90;;;13.72;70.12;102534.50;5073256;28;20048;-62
2023/01/26 10:13:16;;;;;;;30.65;8.50;;;13.70;99.90;;;14.01;71.21;102535.63;5072122;28;20445;-62
2023/01/26 10:15:52;;;;;;;34.35;8.32;;;13.90;99.90;;;13.85;69.18;102536.38;5073284;28;20040;-62
2023/01/26 10:18:28;;;;;;;33.13;8.15;;;13.90;99.90;;;13.95;69.42;102545.31;5073122;28;20044;-62
2023/01/26 10:21:00;;;;;;;35.40;7.80;;;13.90;99.90;;;14.22;68.98;102540.22;5073051;28;20459;-62
2023/01/26 10:23:31;;;;;;;34.20;7.82;;;14.10;99.90;;;14.45;68.09;102549.28;5073007;28;20478;-62
2023/01/26 10:26:11;;;;;;;29.60;8.40;;;14.40;99.90;;;14.57;67.83;102551.16;5073261;28;20044;-62
2023/01/26 10:28:42;;;;;;;34.53;8.85;;;14.50;99.90;;;14.74;66.78;102554.78;5073104;28;20048;-63
2023/01/26 10:31:17;;;;;;;28.45;7.18;;;14.70;99.90;;;14.56;64.34;102544.03;5073651;28;20128;-63
2023/01/26 10:33:54;;;;;;;33.50;8.20;;;14.60;99.90;;;14.84;65.70;102557.53;5072889;28;20432;-63
2023/01/26 10:36:23;;;;;;;25.77;7.78;;;14.70;99.90;;;14.90;64.21;102552.22;5073083;28;20406;-62
2023/01/26 10:38:52;;;;;;;28.73;8.15;;;14.80;99.90;;;14.80;63.32;102553.06;5072781;28;20036;-63
2023/01/26 10:41:27;;;;;;;26.00;8.02;;;14.80;99.90;;;14.80;64.10;102560.16;5072801;28;20429;-63
2023/01/26 10:43:58;;;;;;;29.00;7.95;;;14.70;99.90;;;14.72;63.60;102565.44;5072900;28;20051;-63
2023/01/26 10:46:32;;;;;;;25.20;7.28;;;14.60;99.90;;;14.75;63.37;102570.78;5060513;28;20049;-63
2023/01/26 10:49:04;;;;;;;27.83;8.00;;;14.70;99.90;;;14.78;63.28;102552.16;5052433;28;20055;-64
2023/01/26 10:51:35;;;;;;;28.65;7.32;;;14.80;99.90;;;14.55;62.63;102567.13;5052686;28;20102;-63
2023/01/26 10:54:22;;;;;;;31.05;7.80;;;14.60;99.90;;;14.52;63.10;102544.91;5051605;28;20049;-63
2023/01/26 10:56:55;;;;;;;27.98;6.97;;;14.60;99.90;;;14.78;63.21;102565.50;5039039;28;20053;-61
2023/01/26 10:59:30;;;;;;;22.13;7.00;;;14.70;99.90;;;14.71;61.75;102554.78;5052558;28;20049;-62
2023/01/26 11:02:03;;;;;;;24.27;7.05;;;14.70;99.90;;;14.65;62.26;102555.66;5052875;28;20418;-63
2023/01/26 11:04:31;;;;;;;23.42;7.45;;;14.70;99.90;;;14.70;62.21;102553.91;5052403;28;20453;-62
2023/01/26 11:07:25;;;;;;;28.50;7.03;;;14.70;99.90;;;14.57;61.64;102557.38;5052429;28;20522;-60
2023/01/26 11:09:55;;;;;;;22.45;6.88;;;14.60;99.90;;;14.38;62.05;102544.81;5052418;28;20409;-61
2023/01/26 11:12:26;;;;;;;33.60;7.18;;;14.40;99.90;;;14.09;61.93;102517.94;5052465;28;20049;-61
2023/01/26 11:15:07;;;;;;;19.95;6.60;;;14.20;99.90;;;13.76;62.07;102546.94;5052535;28;20040;-62